Time;durP1;ratioP1;P1;durP2;ratioP2;P2;SDS_P1;SDS_P2;PMS_P1;PMS_P2;Temp;Humidity;BMP_temperature;BMP_pressure;BME280_temperature;BME280_humidity;BME280_pressure;Samples;Min_cycle;Max_cycle;Signal;HPM_P1;HPM_P2
2022/09/21 00:00:42;;;;;;;10.25;3.85;;;11.30;99.90;;;;;;4993484;28;20177;-80
2022/09/21 00:03:08;;;;;;;4.78;3.83;;;11.30;99.90;;;;;;4993547;28;20185;-80
2022/09/21 00:05:34;;;;;;;4.35;3.55;;;11.30;99.90;;;;;;4993687;28;20197;-80
2022/09/21 00:08:01;;;;;;;11.93;4.35;;;11.30;99.90;;;;;;4994232;28;20173;-80
2022/09/21 00:10:27;;;;;;;11.93;4.18;;;11.30;99.90;;;;;;4994230;28;20204;-80
2022/09/21 00:12:53;;;;;;;8.55;3.10;;;11.20;99.90;;;;;;4993762;28;20205;-80
2022/09/21 00:15:19;;;;;;;6.97;2.97;;;11.40;99.90;;;;;;4995005;28;20196;-80
2022/09/21 00:17:46;;;;;;;5.65;3.15;;;11.30;99.90;;;;;;4996848;28;20268;-80
2022/09/21 00:20:13;;;;;;;14.98;3.22;;;11.30;99.90;;;;;;4997852;28;20197;-80
2022/09/21 00:22:40;;;;;;;10.32;3.17;;;11.20;99.90;;;;;;4996821;28;20260;-80
2022/09/21 00:25:07;;;;;;;8.77;4.07;;;11.20;99.90;;;;;;4997183;28;20208;-80
2022/09/21 00:27:32;;;;;;;10.35;3.92;;;11.20;99.90;;;;;;4997445;28;20168;-81
2022/09/21 00:30:03;;;;;;;7.20;3.40;;;11.20;99.90;;;;;;4997121;28;20533;-80
2022/09/21 00:32:30;;;;;;;5.22;3.88;;;11.10;99.90;;;;;;4996697;28;20173;-81
2022/09/21 00:34:57;;;;;;;3.97;3.58;;;11.00;99.90;;;;;;4994665;28;20221;-80
2022/09/21 00:37:23;;;;;;;7.20;4.07;;;11.10;99.90;;;;;;4996158;28;20169;-81
2022/09/21 00:39:49;;;;;;;5.88;4.18;;;11.00;99.90;;;;;;4996375;28;20177;-80
2022/09/21 00:42:22;;;;;;;5.00;4.43;;;11.20;99.90;;;;;;4995271;28;20224;-81
2022/09/21 00:44:48;;;;;;;5.47;4.38;;;11.10;99.90;;;;;;4996353;28;20185;-82
2022/09/21 00:47:37;;;;;;;4.60;3.97;;;11.10;99.90;;;;;;4996870;28;20520;-80
2022/09/21 00:50:10;;;;;;;4.57;4.13;;;11.10;99.90;;;;;;4996760;28;20177;-81
2022/09/21 00:52:40;;;;;;;6.63;4.43;;;11.00;99.90;;;;;;4996410;28;20169;-80
2022/09/21 00:55:09;;;;;;;6.45;4.25;;;10.90;99.90;;;;;;4996165;28;20637;-80
2022/09/21 00:57:35;;;;;;;16.00;4.10;;;10.90;99.90;;;;;;4996377;28;20173;-82
2022/09/21 01:00:09;;;;;;;5.85;4.38;;;10.80;99.90;;;;;;4996396;28;20226;-80
2022/09/21 01:02:36;;;;;;;5.35;4.07;;;10.80;99.90;;;;;;4994608;28;20207;-80
2022/09/21 01:05:05;;;;;;;5.68;4.47;;;10.70;99.90;;;;;;4995515;28;20274;-81
2022/09/21 01:07:35;;;;;;;4.65;4.25;;;10.90;99.90;;;;;;4995667;28;20220;-82
2022/09/21 01:10:08;;;;;;;5.10;4.65;;;11.00;99.90;;;;;;4996195;28;20161;-80
2022/09/21 01:13:01;;;;;;;4.97;4.20;;;10.90;99.90;;;;;;4996171;28;20170;-82
2022/09/21 01:15:49;;;;;;;6.25;4.65;;;11.10;99.90;;;;;;4995981;28;20177;-80
2022/09/21 01:18:54;;;;;;;14.50;4.50;;;11.20;99.90;;;;;;4995658;28;20697;-81
2022/09/21 01:21:25;;;;;;;7.60;4.88;;;11.00;99.90;;;;;;4995395;28;20193;-81
2022/09/21 01:24:18;;;;;;;4.70;4.20;;;11.00;99.90;;;;;;4995580;28;20181;-82
2022/09/21 01:27:04;;;;;;;7.93;4.60;;;10.60;99.90;;;;;;4995158;28;20181;-80
2022/09/21 01:29:58;;;;;;;11.32;4.88;;;10.50;99.90;;;;;;4995539;28;20173;-81
2022/09/21 01:32:36;;;;;;;8.65;5.30;;;10.50;99.90;;;;;;4995287;28;20169;-81
2022/09/21 01:35:08;;;;;;;7.72;5.43;;;10.40;99.90;;;;;;4995115;28;20212;-80
2022/09/21 01:37:39;;;;;;;7.07;5.30;;;10.50;99.90;;;;;;4993929;28;20215;-80
2022/09/21 01:40:12;;;;;;;9.43;4.60;;;10.50;99.90;;;;;;4995245;28;20632;-80
2022/09/21 01:42:42;;;;;;;8.93;5.15;;;10.60;99.90;;;;;;4995411;28;20659;-81
2022/09/21 01:45:11;;;;;;;7.35;4.38;;;10.70;99.90;;;;;;4995491;28;20189;-81
2022/09/21 01:47:39;;;;;;;5.55;4.43;;;10.50;99.90;;;;;;4995176;28;20219;-80
2022/09/21 01:50:08;;;;;;;6.20;4.45;;;10.40;99.90;;;;;;4995138;28;20169;-80
2022/09/21 01:52:55;;;;;;;7.43;5.22;;;10.40;99.90;;;;;;4995102;28;20169;-80
2022/09/21 01:55:27;;;;;;;6.15;4.32;;;10.30;99.90;;;;;;4994697;28;20232;-80
2022/09/21 01:58:10;;;;;;;5.43;4.75;;;10.40;99.90;;;;;;4994545;28;20223;-81
2022/09/21 02:00:38;;;;;;;11.30;5.07;;;10.50;99.90;;;;;;4993198;28;20639;-80
2022/09/21 02:03:12;;;;;;;12.00;4.72;;;10.60;99.90;;;;;;4994619;28;20165;-81
2022/09/21 02:05:39;;;;;;;9.82;5.22;;;10.50;99.90;;;;;;4994522;28;20248;-80
2022/09/21 02:08:06;;;;;;;12.32;4.60;;;10.50;99.90;;;;;;4993264;28;20177;-81
2022/09/21 02:10:44;;;;;;;8.82;4.47;;;10.60;99.90;;;;;;4994791;28;20245;-80
2022/09/21 02:13:15;;;;;;;9.98;4.70;;;10.40;99.90;;;;;;4994565;28;20204;-81
2022/09/21 02:16:09;;;;;;;9.30;4.45;;;10.50;99.90;;;;;;4994577;28;20169;-81
2022/09/21 02:19:12;;;;;;;6.80;4.30;;;10.30;99.90;;;;;;4994815;28;20172;-85
2022/09/21 02:21:40;;;;;;;8.43;4.28;;;10.20;99.90;;;;;;4995224;28;20712;-79
2022/09/21 02:24:28;;;;;;;11.82;3.97;;;10.30;99.90;;;;;;4995487;28;20193;-80
2022/09/21 02:27:06;;;;;;;7.45;3.85;;;10.20;99.90;;;;;;4994646;28;20173;-79
2022/09/21 02:30:11;;;;;;;5.53;3.85;;;10.10;99.90;;;;;;4995167;28;20172;-80
2022/09/21 02:33:08;;;;;;;7.32;3.75;;;10.10;99.90;;;;;;4994479;28;20173;-79
2022/09/21 02:35:54;;;;;;;21.92;3.65;;;10.30;99.90;;;;;;4993026;28;20285;-80
2022/09/21 02:38:46;;;;;;;4.30;3.72;;;10.40;99.90;;;;;;4994225;28;20169;-80
2022/09/21 02:41:35;;;;;;;10.00;4.20;;;10.50;99.90;;;;;;4994310;28;20556;-81
2022/09/21 02:44:10;;;;;;;7.55;4.35;;;10.70;99.90;;;;;;4994034;28;20239;-81
2022/09/21 02:46:41;;;;;;;4.72;4.00;;;10.50;99.90;;;;;;4993869;28;20169;-81
2022/09/21 02:49:15;;;;;;;12.10;4.65;;;10.60;99.90;;;;;;4994113;28;20161;-81
2022/09/21 02:51:50;;;;;;;13.30;4.70;;;10.60;99.90;;;;;;4994598;28;20216;-80
2022/09/21 02:54:21;;;;;;;13.50;4.50;;;10.30;99.90;;;;;;4993074;28;20216;-80
2022/09/21 02:56:48;;;;;;;9.65;5.10;;;10.50;99.90;;;;;;4992548;28;20223;-80
2022/09/21 02:59:15;;;;;;;5.82;4.63;;;10.40;99.90;;;;;;4992462;28;20625;-80
2022/09/21 03:01:42;;;;;;;12.88;4.80;;;10.40;99.90;;;;;;4993855;28;20193;-80
2022/09/21 03:04:08;;;;;;;11.10;4.18;;;10.50;99.90;;;;;;4993682;28;20251;-80
2022/09/21 03:06:34;;;;;;;6.85;4.35;;;10.20;99.90;;;;;;4993441;28;20155;-80
2022/09/21 03:08:59;;;;;;;14.15;4.00;;;10.10;99.90;;;;;;4993641;28;20248;-80
2022/09/21 03:11:25;;;;;;;8.75;4.57;;;10.00;99.90;;;;;;4993973;28;20166;-80
2022/09/21 03:13:51;;;;;;;14.10;5.13;;;9.90;99.90;;;;;;4992220;28;20634;-82
2022/09/21 03:16:17;;;;;;;9.38;4.28;;;10.00;99.90;;;;;;4992411;28;20176;-80
2022/09/21 03:18:43;;;;;;;5.90;3.80;;;10.30;99.90;;;;;;4993493;28;20196;-80
2022/09/21 03:21:09;;;;;;;6.15;4.13;;;10.10;99.90;;;;;;4993404;28;20244;-80
2022/09/21 03:23:35;;;;;;;5.20;4.20;;;10.10;99.90;;;;;;4993747;28;20204;-80
2022/09/21 03:26:01;;;;;;;7.90;3.88;;;10.10;99.90;;;;;;4993504;28;20169;-80
2022/09/21 03:28:27;;;;;;;5.78;4.15;;;10.20;99.90;;;;;;4993313;28;20264;-80
2022/09/21 03:30:53;;;;;;;4.97;4.50;;;10.10;99.90;;;;;;4993279;28;20176;-79
2022/09/21 03:33:19;;;;;;;10.07;3.75;;;10.10;99.90;;;;;;4992962;28;20213;-79
2022/09/21 03:35:47;;;;;;;7.95;4.00;;;10.00;99.90;;;;;;4991818;28;20247;-80
2022/09/21 03:38:13;;;;;;;7.75;4.25;;;10.00;99.90;;;;;;4993311;28;20255;-79
2022/09/21 03:40:39;;;;;;;10.45;4.82;;;10.00;99.90;;;;;;4993078;28;20172;-79
2022/09/21 03:43:05;;;;;;;6.85;4.30;;;10.10;99.90;;;;;;4992914;28;20529;-80
2022/09/21 03:45:30;;;;;;;6.10;4.13;;;10.20;99.90;;;;;;4993032;28;20176;-79
2022/09/21 03:48:00;;;;;;;9.20;4.30;;;10.10;99.90;;;;;;4992975;28;20872;-79
2022/09/21 03:50:28;;;;;;;6.32;4.57;;;9.90;99.90;;;;;;4992454;28;20208;-79
2022/09/21 03:52:57;;;;;;;10.38;4.10;;;10.00;99.90;;;;;;4991259;28;20203;-79
2022/09/21 03:55:23;;;;;;;7.90;5.13;;;10.00;99.90;;;;;;4992901;28;20264;-79
2022/09/21 03:57:49;;;;;;;11.98;4.72;;;10.20;99.90;;;;;;4993219;28;20166;-80
2022/09/21 04:00:15;;;;;;;11.55;5.35;;;10.30;99.90;;;;;;4993123;28;20173;-79
2022/09/21 04:02:41;;;;;;;5.70;4.30;;;10.20;99.90;;;;;;4992982;28;20196;-79
2022/09/21 04:05:09;;;;;;;5.28;4.78;;;10.10;99.90;;;;;;4993017;28;20524;-79
2022/09/21 04:07:35;;;;;;;6.80;4.85;;;10.10;99.90;;;;;;4993041;28;20197;-79
2022/09/21 04:10:04;;;;;;;11.05;5.43;;;10.20;99.90;;;;;;4991866;28;20173;-79
2022/09/21 04:12:30;;;;;;;9.50;4.30;;;10.20;99.90;;;;;;4993807;28;20515;-78
2022/09/21 04:14:55;;;;;;;6.28;4.97;;;10.10;99.90;;;;;;4992646;28;20240;-78
2022/09/21 04:17:21;;;;;;;7.78;4.30;;;10.20;99.90;;;;;;4992909;28;20169;-78
2022/09/21 04:19:47;;;;;;;11.85;4.95;;;10.10;99.90;;;;;;4993118;28;20177;-78
2022/09/21 04:22:13;;;;;;;28.05;4.93;;;10.20;99.90;;;;;;4991688;28;20179;-78
2022/09/21 04:24:39;;;;;;;6.00;4.15;;;10.20;99.90;;;;;;4992961;28;20193;-78
2022/09/21 04:27:06;;;;;;;7.82;5.32;;;10.10;99.90;;;;;;4991840;28;20169;-78
2022/09/21 04:29:32;;;;;;;5.82;5.15;;;10.20;99.90;;;;;;4991750;28;20173;-78
2022/09/21 04:31:58;;;;;;;7.40;5.55;;;10.30;99.90;;;;;;4992904;28;20649;-78
2022/09/21 04:34:24;;;;;;;8.70;5.22;;;10.30;99.90;;;;;;4992615;28;20690;-79
2022/09/21 04:36:49;;;;;;;5.65;5.15;;;10.40;99.90;;;;;;4992916;28;20203;-78
2022/09/21 04:39:15;;;;;;;6.18;4.95;;;10.30;99.90;;;;;;4993114;28;20627;-78
2022/09/21 04:41:41;;;;;;;18.52;5.13;;;10.10;99.90;;;;;;4992885;28;20604;-79
2022/09/21 04:44:06;;;;;;;7.63;5.82;;;10.00;99.90;;;;;;4992839;28;20193;-80
2022/09/21 04:46:32;;;;;;;12.98;6.13;;;9.90;99.90;;;;;;4992321;28;20280;-79
2022/09/21 04:48:58;;;;;;;8.15;6.32;;;10.00;99.90;;;;;;4992804;28;20650;-78
2022/09/21 04:51:24;;;;;;;18.75;5.40;;;10.00;99.90;;;;;;4992928;28;20660;-78
2022/09/21 04:53:50;;;;;;;8.50;5.45;;;9.90;99.90;;;;;;5004420;28;20217;-78
2022/09/21 04:56:16;;;;;;;10.52;5.90;;;10.00;99.90;;;;;;5011757;28;20145;-78
2022/09/21 04:58:42;;;;;;;15.93;6.15;;;10.00;99.90;;;;;;4993713;28;20240;-78
2022/09/21 05:01:09;;;;;;;7.82;6.18;;;10.00;99.90;;;;;;4992102;28;20644;-79
2022/09/21 05:03:34;;;;;;;11.52;5.50;;;10.00;99.90;;;;;;4995246;28;20292;-78
2022/09/21 05:06:01;;;;;;;6.93;4.95;;;10.00;99.90;;;;;;4996005;28;20268;-82
2022/09/21 05:11:20;;;;;;;6.72;6.05;;;9.90;99.90;;;;;;4995926;28;20713;-80
2022/09/21 05:13:46;;;;;;;18.88;6.10;;;9.70;99.90;;;;;;4995655;28;20213;-78
2022/09/21 05:16:12;;;;;;;6.63;4.97;;;9.40;99.90;;;;;;4995854;28;20170;-78
2022/09/21 05:18:38;;;;;;;5.85;5.05;;;9.30;99.90;;;;;;4995912;28;20177;-79
2022/09/21 05:21:05;;;;;;;8.23;6.30;;;9.40;99.90;;;;;;4995757;28;20239;-79
2022/09/21 05:23:31;;;;;;;9.38;6.07;;;9.70;99.90;;;;;;4995894;28;20215;-79
2022/09/21 05:25:58;;;;;;;7.28;5.80;;;9.70;99.90;;;;;;4996274;28;20677;-79
2022/09/21 05:28:24;;;;;;;8.98;5.32;;;9.70;99.90;;;;;;4996628;28;20561;-81
2022/09/21 05:30:58;;;;;;;8.13;5.70;;;9.90;99.90;;;;;;4995859;28;20196;-78
2022/09/21 05:33:29;;;;;;;12.80;5.68;;;10.00;99.90;;;;;;4995446;28;20204;-84
2022/09/21 05:36:26;;;;;;;7.20;5.53;;;10.10;99.90;;;;;;4996255;28;20216;-79
2022/09/21 05:38:52;;;;;;;9.88;6.30;;;10.20;99.90;;;;;;4987732;28;20181;-80
2022/09/21 05:41:18;;;;;;;12.90;5.70;;;10.40;99.90;;;;;;4994987;28;20180;-86
2022/09/21 05:43:44;;;;;;;12.05;5.90;;;10.40;99.90;;;;;;4995017;28;20193;-79
2022/09/21 05:46:17;;;;;;;9.68;6.00;;;10.50;99.90;;;;;;4995182;28;20258;-79
2022/09/21 05:49:06;;;;;;;12.50;5.32;;;10.50;99.90;;;;;;4995172;28;20675;-78
2022/09/21 05:51:47;;;;;;;10.20;5.15;;;10.50;99.90;;;;;;4991764;28;20281;-80
2022/09/21 05:54:31;;;;;;;10.48;6.13;;;10.20;99.90;;;;;;4995381;28;20224;-80
2022/09/21 05:57:15;;;;;;;16.42;5.97;;;10.20;99.90;;;;;;4995298;28;20177;-78
2022/09/21 05:59:59;;;;;;;9.48;5.15;;;10.30;99.90;;;;;;4995101;28;20169;-78
2022/09/21 06:02:34;;;;;;;5.32;4.82;;;10.30;99.90;;;;;;4995158;28;20173;-78
2022/09/21 06:05:01;;;;;;;11.05;5.05;;;10.50;99.90;;;;;;4995489;28;20203;-79
2022/09/21 06:07:27;;;;;;;7.40;6.30;;;10.60;99.90;;;;;;4995954;28;20316;-79
2022/09/21 06:09:52;;;;;;;10.10;5.78;;;10.70;99.90;;;;;;4995789;28;20658;-79
2022/09/21 06:12:18;;;;;;;9.07;5.03;;;10.60;99.90;;;;;;4995817;28;20651;-78
2022/09/21 06:14:44;;;;;;;12.00;5.72;;;10.70;99.90;;;;;;4994974;28;20209;-79
2022/09/21 06:17:09;;;;;;;25.02;5.63;;;10.70;99.90;;;;;;4995293;28;20165;-79
2022/09/21 06:19:35;;;;;;;14.32;5.60;;;10.70;99.90;;;;;;4994628;28;20169;-79
2022/09/21 06:22:00;;;;;;;24.42;6.15;;;10.80;99.90;;;;;;4994459;28;20176;-80
2022/09/21 06:24:26;;;;;;;35.40;5.95;;;10.70;99.90;;;;;;4994603;28;20200;-79
2022/09/21 06:26:51;;;;;;;6.28;5.32;;;10.80;99.90;;;;;;4994745;28;20261;-81
2022/09/21 06:29:22;;;;;;;6.38;5.30;;;10.70;99.90;;;;;;4994647;28;20196;-79
2022/09/21 06:31:51;;;;;;;12.35;6.68;;;10.80;99.90;;;;;;4995652;28;20264;-79
2022/09/21 06:34:17;;;;;;;6.97;6.28;;;10.60;99.90;;;;;;4993523;28;20217;-80
2022/09/21 06:36:44;;;;;;;8.02;6.03;;;10.60;99.90;;;;;;4994499;28;20240;-79
2022/09/21 06:39:10;;;;;;;7.22;5.82;;;10.80;99.90;;;;;;4999213;28;20166;-80
2022/09/21 06:41:36;;;;;;;18.50;6.53;;;11.10;99.90;;;;;;4999645;28;20501;-79
2022/09/21 06:44:01;;;;;;;7.45;6.22;;;11.10;99.90;;;;;;4994286;28;20237;-78
2022/09/21 06:46:27;;;;;;;15.00;6.05;;;11.20;99.90;;;;;;4994202;28;20169;-78
2022/09/21 06:48:53;;;;;;;11.85;6.50;;;11.40;99.90;;;;;;4993842;28;20177;-78
2022/09/21 06:51:20;;;;;;;13.70;7.10;;;11.40;99.90;;;;;;4994028;28;20209;-82
2022/09/21 06:53:46;;;;;;;9.18;7.28;;;11.40;99.90;;;;;;4993073;28;20216;-78
2022/09/21 06:56:12;;;;;;;8.38;7.57;;;11.30;99.90;;;;;;4993980;28;20626;-78
2022/09/21 06:58:37;;;;;;;7.43;6.72;;;11.30;99.90;;;;;;4994671;28;20185;-78
2022/09/21 07:01:08;;;;;;;10.10;7.60;;;11.50;99.90;;;;;;4994371;28;20173;-80
2022/09/21 07:03:34;;;;;;;26.42;7.53;;;11.60;99.90;;;;;;4993320;28;20213;-78
2022/09/21 07:06:00;;;;;;;8.85;7.25;;;11.90;99.90;;;;;;4993015;28;20204;-78
2022/09/21 07:08:25;;;;;;;8.68;7.47;;;12.10;99.90;;;;;;4993490;28;20173;-78
2022/09/21 07:10:52;;;;;;;16.23;8.43;;;12.20;99.90;;;;;;4992757;28;20201;-78
2022/09/21 07:13:17;;;;;;;9.07;7.45;;;12.00;99.90;;;;;;4993771;28;20231;-78
2022/09/21 07:15:46;;;;;;;13.32;8.30;;;12.10;99.90;;;;;;4993714;28;20636;-78
2022/09/21 07:18:13;;;;;;;11.15;7.47;;;12.30;99.90;;;;;;4993790;28;20662;-78
2022/09/21 07:20:40;;;;;;;9.73;8.70;;;12.40;99.90;;;;;;4992116;28;20187;-77
2022/09/21 07:23:14;;;;;;;9.23;8.32;;;12.60;99.90;;;;;;4993460;28;20204;-78
2022/09/21 07:25:40;;;;;;;13.00;8.50;;;12.70;99.90;;;;;;4993013;28;20165;-78
2022/09/21 07:28:06;;;;;;;15.27;8.48;;;12.90;99.90;;;;;;4992399;28;20173;-78
2022/09/21 07:30:31;;;;;;;25.30;9.48;;;13.00;99.90;;;;;;4993416;28;20176;-79
2022/09/21 07:32:57;;;;;;;17.25;9.32;;;13.10;99.90;;;;;;4992929;28;20173;-78
2022/09/21 07:35:23;;;;;;;17.50;10.05;;;13.20;99.90;;;;;;4993574;28;20189;-79
2022/09/21 07:37:49;;;;;;;12.93;8.95;;;13.30;99.90;;;;;;4993030;28;20530;-78
2022/09/21 07:40:14;;;;;;;19.88;10.02;;;13.20;99.90;;;;;;4991854;28;20177;-90
2022/09/21 07:42:40;;;;;;;21.02;10.07;;;13.30;99.90;;;;;;5008230;28;20169;-79
2022/09/21 07:45:06;;;;;;;24.73;10.63;;;13.20;99.90;;;;;;4993268;28;20189;-85
2022/09/21 07:47:32;;;;;;;17.90;9.57;;;13.40;99.90;;;;;;4994091;28;20184;-90
2022/09/21 07:49:57;;;;;;;16.33;9.88;;;13.50;99.90;;;;;;4993527;28;20262;-80
2022/09/21 07:52:23;;;;;;;34.42;10.18;;;13.50;99.90;;;;;;4992732;28;20165;-78
2022/09/21 07:54:51;;;;;;;17.73;9.30;;;13.60;99.90;;;;;;4993634;28;20248;-91
2022/09/21 08:00:01;;;;;;;18.83;9.98;;;13.70;99.90;;;;;;4992289;28;20677;-92
2022/09/21 08:02:26;;;;;;;17.00;8.27;;;13.70;99.90;;;;;;4975943;28;20252;-95
2022/09/21 08:04:52;;;;;;;20.83;9.35;;;14.00;99.90;;;;;;4990933;28;20182;-95
2022/09/21 08:07:18;;;;;;;32.38;10.60;;;14.20;99.90;;;;;;4975069;28;20166;-88
2022/09/21 08:09:48;;;;;;;16.27;9.88;;;14.40;99.90;;;;;;4977257;28;20173;-85
2022/09/21 08:12:14;;;;;;;15.93;9.30;;;14.60;99.90;;;;;;4993923;28;20183;-93
2022/09/21 08:14:41;;;;;;;19.58;9.65;;;14.70;99.90;;;;;;4994742;28;20232;-87
2022/09/21 08:17:07;;;;;;;21.13;10.85;;;14.70;99.90;;;;;;4993448;28;20223;-81
2022/09/21 08:19:35;;;;;;;18.70;9.45;;;14.90;99.90;;;;;;4993551;28;20173;-89
2022/09/21 08:22:01;;;;;;;14.93;8.02;;;14.90;99.90;;;;;;4993901;28;20168;-85
2022/09/21 08:24:26;;;;;;;16.15;8.55;;;15.00;99.90;;;;;;4993446;28;20575;-79
2022/09/21 08:26:52;;;;;;;28.02;7.50;;;15.10;99.90;;;;;;4992603;28;20189;-86
2022/09/21 08:29:18;;;;;;;25.42;8.13;;;15.00;99.90;;;;;;4993455;28;20170;-82
2022/09/21 08:31:45;;;;;;;34.15;7.40;;;15.20;99.90;;;;;;4994437;28;20169;-84
2022/09/21 08:34:11;;;;;;;16.23;7.30;;;15.30;99.90;;;;;;4992540;28;20296;-88
2022/09/21 08:36:37;;;;;;;18.13;6.13;;;15.30;99.90;;;;;;4994788;28;20213;-88
2022/09/21 08:39:06;;;;;;;18.13;6.30;;;15.50;99.90;;;;;;4996763;28;20169;-81
2022/09/21 08:41:49;;;;;;;24.63;6.53;;;15.50;99.90;;;;;;4997023;28;20219;-81
2022/09/21 08:44:25;;;;;;;13.95;6.40;;;15.40;99.90;;;;;;4997424;28;20276;-80
2022/09/21 08:47:03;;;;;;;15.02;5.70;;;15.40;99.90;;;;;;4996874;28;20219;-79
2022/09/21 08:49:32;;;;;;;9.80;5.07;;;15.50;99.90;;;;;;4997014;28;20172;-91
2022/09/21 08:52:04;;;;;;;9.27;5.25;;;15.60;99.90;;;;;;4997543;28;20669;-83
2022/09/21 08:54:49;;;;;;;7.63;5.00;;;15.80;99.90;;;;;;4995415;28;20217;-82
2022/09/21 08:57:24;;;;;;;13.23;4.90;;;15.80;99.90;;;;;;4990417;28;20181;-80
2022/09/21 08:59:50;;;;;;;21.77;4.97;;;16.00;99.90;;;;;;5007319;28;20192;-80
2022/09/21 09:02:38;;;;;;;11.70;4.47;;;16.10;99.90;;;;;;5001453;28;20169;-87
2022/09/21 09:05:25;;;;;;;10.07;4.10;;;16.10;99.90;;;;;;5019336;28;20189;-78
2022/09/21 09:08:15;;;;;;;13.23;4.65;;;16.30;99.90;;;;;;5020746;28;20212;-79
2022/09/21 09:11:01;;;;;;;15.77;4.15;;;16.50;99.90;;;;;;5020813;28;20236;-78
2022/09/21 09:13:33;;;;;;;8.95;3.45;;;16.20;99.90;;;;;;5018345;28;20213;-79
2022/09/21 09:16:14;;;;;;;5.65;1.52;;;16.30;99.90;;;;;;5011903;28;20169;-78
2022/09/21 09:18:39;;;;;;;9.70;2.30;;;16.40;99.90;;;;;;5018338;28;20161;-78
2022/09/21 09:21:30;;;;;;;12.25;2.58;;;16.30;99.90;;;;;;5019403;28;20177;-78
2022/09/21 09:24:10;;;;;;;7.32;2.42;;;16.20;99.90;;;;;;5008034;28;20189;-77
2022/09/21 09:26:45;;;;;;;8.88;3.22;;;16.20;99.90;;;;;;5005906;28;20172;-78
2022/09/21 09:29:19;;;;;;;8.73;2.55;;;16.00;99.90;;;;;;5016575;28;20224;-78
2022/09/21 09:31:46;;;;;;;5.35;2.63;;;16.10;99.90;;;;;;5017227;28;20180;-77
2022/09/21 09:34:23;;;;;;;5.38;2.90;;;16.10;99.90;;;;;;5000710;28;20686;-78
2022/09/21 09:36:58;;;;;;;7.78;3.25;;;16.30;99.90;;;;;;4999689;28;20259;-77
2022/09/21 09:39:25;;;;;;;7.18;2.72;;;16.50;99.90;;;;;;4998950;28;20181;-77
2022/09/21 09:42:04;;;;;;;8.52;2.67;;;16.70;99.90;;;;;;4999374;28;20252;-78
2022/09/21 09:45:03;;;;;;;6.60;3.22;;;16.60;99.90;;;;;;4995307;28;20675;-78
2022/09/21 09:47:57;;;;;;;18.20;2.85;;;16.70;99.90;;;;;;4995822;28;20227;-77
2022/09/21 09:50:39;;;;;;;4.50;1.77;;;16.90;99.90;;;;;;4996397;28;20161;-77
2022/09/21 09:53:17;;;;;;;3.83;1.50;;;17.10;99.90;;;;;;4995452;28;20601;-77
2022/09/21 09:55:45;;;;;;;7.03;1.30;;;16.70;99.90;;;;;;4994471;28;20207;-78
2022/09/21 09:58:25;;;;;;;3.88;0.85;;;16.60;99.90;;;;;;4992953;28;20591;-78
2022/09/21 10:00:55;;;;;;;7.70;1.40;;;16.70;99.90;;;;;;4994683;28;20177;-79
2022/09/21 10:03:25;;;;;;;4.18;2.08;;;16.80;99.90;;;;;;4993716;28;20193;-80
2022/09/21 10:05:52;;;;;;;11.73;1.90;;;16.70;99.90;;;;;;4994796;28;20177;-79
2022/09/21 10:08:40;;;;;;;4.13;1.48;;;16.70;99.90;;;;;;4994805;28;20171;-78
2022/09/21 10:11:07;;;;;;;6.07;1.98;;;16.80;99.90;;;;;;4994265;28;20176;-78
2022/09/21 10:13:35;;;;;;;5.07;1.48;;;17.00;99.90;;;;;;4995266;28;20232;-79
2022/09/21 10:16:14;;;;;;;5.13;1.75;;;17.20;99.90;;;;;;4994541;28;20165;-78
2022/09/21 10:18:46;;;;;;;2.42;1.30;;;17.30;99.90;;;;;;4994390;28;20172;-77
2022/09/21 10:21:18;;;;;;;3.25;1.20;;;17.10;99.90;;;;;;4994439;28;20178;-78
2022/09/21 10:23:48;;;;;;;4.13;1.13;;;17.10;99.90;;;;;;4994178;28;20193;-79
2022/09/21 10:26:16;;;;;;;5.15;1.05;;;17.20;99.90;;;;;;4994235;28;20177;-78
2022/09/21 10:28:57;;;;;;;6.38;1.33;;;17.20;99.90;;;;;;4993988;28;20169;-78
2022/09/21 10:31:25;;;;;;;4.15;0.85;;;17.20;99.90;;;;;;4993040;28;20201;-78
2022/09/21 10:34:05;;;;;;;5.88;1.30;;;17.30;99.90;;;;;;5008972;28;20213;-78
2022/09/21 10:36:36;;;;;;;3.88;1.30;;;17.50;99.90;;;;;;4993985;28;20181;-78
2022/09/21 10:39:18;;;;;;;3.60;1.73;;;17.70;99.90;;;;;;4994251;28;20173;-78
2022/09/21 10:41:53;;;;;;;6.32;1.20;;;17.70;99.90;;;;;;4993868;28;20165;-77
2022/09/21 10:44:22;;;;;;;4.13;1.13;;;17.60;99.90;;;;;;4993958;28;20185;-77
2022/09/21 10:46:49;;;;;;;5.78;1.50;;;17.60;99.90;;;;;;4994053;28;20165;-77
2022/09/21 10:49:21;;;;;;;0.80;0.80;;;17.40;99.90;;;;;;4994092;28;20184;-83
2022/09/21 10:51:49;;;;;;;2.38;0.60;;;17.30;99.90;;;;;;4993816;28;20169;-78
2022/09/21 10:54:23;;;;;;;7.45;1.10;;;17.40;99.90;;;;;;4993816;28;20209;-77
2022/09/21 10:56:51;;;;;;;2.58;0.88;;;17.40;99.90;;;;;;4992675;28;20230;-77
2022/09/21 10:59:29;;;;;;;2.65;1.00;;;17.70;99.90;;;;;;4993763;28;20184;-78
2022/09/21 11:01:58;;;;;;;2.83;1.67;;;17.80;99.90;;;;;;4992200;28;20161;-76
2022/09/21 11:04:44;;;;;;;7.10;1.13;;;17.70;99.90;;;;;;4992293;28;20288;-77
2022/09/21 11:07:33;;;;;;;2.78;0.93;;;17.60;99.90;;;;;;4993527;28;20172;-78
2022/09/21 11:10:15;;;;;;;4.63;0.90;;;17.70;99.90;;;;;;4993561;28;20161;-77
2022/09/21 11:13:08;;;;;;;5.72;0.95;;;18.10;99.90;;;;;;4993695;28;20271;-78
2022/09/21 11:15:55;;;;;;;7.28;1.17;;;18.40;99.90;;;;;;4993622;28;20216;-77
2022/09/21 11:18:50;;;;;;;3.60;0.80;;;18.40;99.90;;;;;;4993460;28;20210;-80
2022/09/21 11:21:38;;;;;;;2.15;0.60;;;18.20;99.90;;;;;;4991322;28;20176;-78
2022/09/21 11:24:21;;;;;;;2.30;1.10;;;18.20;99.90;;;;;;4993483;28;20209;-78
2022/09/21 11:27:09;;;;;;;5.78;0.80;;;18.50;99.90;;;;;;4993463;28;20235;-80
2022/09/21 11:30:12;;;;;;;3.05;0.95;;;18.30;99.90;;;;;;5003023;28;20503;-78
2022/09/21 11:32:52;;;;;;;5.70;1.00;;;18.40;99.90;;;;;;5004485;28;20651;-78
2022/09/21 11:35:46;;;;;;;8.27;1.10;;;18.30;99.90;;;;;;4996236;28;20247;-79
2022/09/21 11:38:24;;;;;;;4.05;1.20;;;18.30;99.90;;;;;;4999770;28;20251;-78
2022/09/21 11:41:28;;;;;;;1.45;0.80;;;18.20;99.90;;;;;;5000110;28;20196;-78
2022/09/21 11:43:56;;;;;;;1.58;0.50;;;18.40;99.90;;;;;;4940851;28;20660;-79
2022/09/21 11:46:41;;;;;;;2.95;0.90;;;18.60;99.90;;;;;;4984698;28;20617;-85
2022/09/21 11:49:18;;;;;;;2.90;0.68;;;18.80;99.90;;;;;;5005893;28;20192;-78
2022/09/21 11:52:05;;;;;;;0.88;0.43;;;18.40;99.90;;;;;;5006460;28;20195;-78
2022/09/21 11:54:51;;;;;;;1.05;0.60;;;18.40;99.90;;;;;;5002892;28;20221;-78
2022/09/21 11:57:54;;;;;;;9.00;0.80;;;18.30;99.90;;;;;;4994464;28;20645;-82
2022/09/21 12:00:21;;;;;;;2.90;0.40;;;18.40;99.90;;;;;;4995708;28;20295;-79
2022/09/21 12:03:31;;;;;;;2.28;0.82;;;18.10;99.90;;;;;;4993383;28;20243;-79
2022/09/21 12:06:15;;;;;;;1.00;0.40;;;18.20;99.90;;;;;;4991077;28;20260;-84
2022/09/21 12:09:05;;;;;;;6.32;0.52;;;18.40;99.90;;;;;;4990981;28;21315;-80
2022/09/21 12:11:47;;;;;;;0.88;0.60;;;18.50;99.90;;;;;;5009754;28;20674;-79
2022/09/21 12:14:51;;;;;;;2.53;1.10;;;18.60;99.90;;;;;;4997424;28;20227;-79
2022/09/21 12:17:39;;;;;;;4.10;0.88;;;19.00;99.90;;;;;;4996980;28;20164;-79
2022/09/21 12:20:20;;;;;;;1.98;0.60;;;19.10;99.90;;;;;;4993836;28;20193;-83
2022/09/21 12:22:48;;;;;;;10.35;0.55;;;18.70;99.90;;;;;;4996862;28;20623;-78
2022/09/21 12:25:26;;;;;;;0.80;0.50;;;18.90;99.90;;;;;;4996394;28;20208;-81
2022/09/21 12:28:16;;;;;;;2.33;0.80;;;19.20;99.90;;;;;;4998482;28;20165;-80
2022/09/21 12:30:46;;;;;;;3.08;1.02;;;19.20;99.90;;;;;;4997581;28;20263;-81
2022/09/21 12:33:20;;;;;;;2.40;1.30;;;19.20;99.90;;;;;;4996968;28;20161;-80
2022/09/21 12:35:57;;;;;;;4.78;0.73;;;19.30;99.90;;;;;;4995427;28;20227;-80
2022/09/21 12:38:35;;;;;;;3.83;0.85;;;19.20;99.90;;;;;;4995384;28;20161;-79
2022/09/21 12:41:20;;;;;;;2.85;0.80;;;19.00;99.90;;;;;;4996870;28;20207;-80
2022/09/21 12:44:13;;;;;;;5.57;1.05;;;19.10;99.90;;;;;;4996483;28;20203;-80
2022/09/21 12:47:10;;;;;;;3.15;1.00;;;19.10;99.90;;;;;;4986295;28;20577;-80
2022/09/21 12:49:43;;;;;;;1.40;0.60;;;19.20;99.90;;;;;;4995919;28;20197;-80
2022/09/21 12:52:17;;;;;;;1.75;0.60;;;19.00;99.90;;;;;;4996505;28;20248;-80
2022/09/21 12:55:09;;;;;;;4.30;0.70;;;19.00;99.90;;;;;;4996149;28;20607;-80
2022/09/21 12:58:06;;;;;;;2.20;0.90;;;18.90;99.90;;;;;;4996475;28;20191;-79
2022/09/21 13:01:16;;;;;;;3.78;0.70;;;18.70;99.90;;;;;;4993870;28;20253;-79
2022/09/21 13:03:49;;;;;;;3.28;0.68;;;18.60;99.90;;;;;;4996473;28;20197;-82
2022/09/21 13:06:39;;;;;;;2.47;0.52;;;18.60;99.90;;;;;;4995831;28;20534;-79
2022/09/21 13:09:08;;;;;;;3.65;0.60;;;18.60;99.90;;;;;;4996461;28;20176;-80
2022/09/21 13:11:34;;;;;;;3.83;0.80;;;18.70;99.90;;;;;;4996394;28;20162;-80
2022/09/21 13:14:03;;;;;;;2.17;0.90;;;18.70;99.90;;;;;;4996316;28;20213;-80
2022/09/21 13:16:32;;;;;;;6.07;0.85;;;18.50;99.90;;;;;;4996755;28;20224;-78
2022/09/21 13:19:20;;;;;;;2.85;1.00;;;18.50;99.90;;;;;;4995988;28;20204;-79